sensor_id;sensor_type;location;lat;lon;timestamp;pressure;altitude;pressure_sealevel;temperature;humidity
61359;BME280;47228;46.762;23.598;2024-01-10T00:01:16;98700.83;;;-6.13;69.34
61359;BME280;47228;46.762;23.598;2024-01-10T00:03:46;98701.75;;;-6.10;69.44
61359;BME280;47228;46.762;23.598;2024-01-10T00:06:14;98702.58;;;-6.10;69.01
61359;BME280;47228;46.762;23.598;2024-01-10T00:08:42;98706.77;;;-6.11;68.92
61359;BME280;47228;46.762;23.598;2024-01-10T00:11:11;98707.23;;;-6.14;68.86
61359;BME280;47228;46.762;23.598;2024-01-10T00:13:39;98706.75;;;-6.19;68.52
61359;BME280;47228;46.762;23.598;2024-01-10T00:16:07;98706.63;;;-6.24;68.45
61359;BME280;47228;46.762;23.598;2024-01-10T00:18:36;98707.50;;;-6.29;68.52
61359;BME280;47228;46.762;23.598;2024-01-10T00:21:04;98709.98;;;-6.34;68.46
61359;BME280;47228;46.762;23.598;2024-01-10T00:23:32;98710.20;;;-6.40;68.37
61359;BME280;47228;46.762;23.598;2024-01-10T00:26:01;98708.88;;;-6.46;68.41
61359;BME280;47228;46.762;23.598;2024-01-10T00:28:29;98710.63;;;-6.51;68.71
61359;BME280;47228;46.762;23.598;2024-01-10T00:30:57;98710.60;;;-6.54;68.78
61359;BME280;47228;46.762;23.598;2024-01-10T00:33:26;98713.67;;;-6.58;68.84
61359;BME280;47228;46.762;23.598;2024-01-10T00:35:54;98711.43;;;-6.63;69.03
61359;BME280;47228;46.762;23.598;2024-01-10T00:38:22;98711.39;;;-6.66;69.20
61359;BME280;47228;46.762;23.598;2024-01-10T00:40:51;98714.71;;;-6.67;69.31
61359;BME280;47228;46.762;23.598;2024-01-10T00:43:19;98711.58;;;-6.66;69.74
61359;BME280;47228;46.762;23.598;2024-01-10T00:45:47;98711.83;;;-6.64;69.95
61359;BME280;47228;46.762;23.598;2024-01-10T00:48:15;98712.00;;;-6.64;69.83
61359;BME280;47228;46.762;23.598;2024-01-10T00:50:46;98712.62;;;-6.67;69.47
61359;BME280;47228;46.762;23.598;2024-01-10T00:53:14;98713.93;;;-6.69;69.48
61359;BME280;47228;46.762;23.598;2024-01-10T00:55:42;98714.99;;;-6.70;69.67
61359;BME280;47228;46.762;23.598;2024-01-10T00:58:10;98715.51;;;-6.70;69.93
61359;BME280;47228;46.762;23.598;2024-01-10T01:00:39;98713.35;;;-6.72;69.68
61359;BME280;47228;46.762;23.598;2024-01-10T01:03:07;98708.77;;;-6.78;69.29
61359;BME280;47228;46.762;23.598;2024-01-10T01:05:35;98710.35;;;-6.83;69.24
61359;BME280;47228;46.762;23.598;2024-01-10T01:08:04;98710.11;;;-6.91;69.36
61359;BME280;47228;46.762;23.598;2024-01-10T01:10:33;98705.66;;;-6.96;69.34
61359;BME280;47228;46.762;23.598;2024-01-10T01:13:04;98701.56;;;-7.01;69.67
61359;BME280;47228;46.762;23.598;2024-01-10T01:15:33;98701.14;;;-7.04;69.75
61359;BME280;47228;46.762;23.598;2024-01-10T01:18:01;98703.27;;;-7.05;69.86
61359;BME280;47228;46.762;23.598;2024-01-10T01:20:29;98704.02;;;-7.07;69.82
61359;BME280;47228;46.762;23.598;2024-01-10T01:22:58;98697.36;;;-7.09;69.92
61359;BME280;47228;46.762;23.598;2024-01-10T01:25:26;98699.49;;;-7.10;69.88
61359;BME280;47228;46.762;23.598;2024-01-10T01:27:55;98702.77;;;-7.11;70.15
61359;BME280;47228;46.762;23.598;2024-01-10T01:30:23;98701.05;;;-7.10;70.32
61359;BME280;47228;46.762;23.598;2024-01-10T01:32:52;98700.52;;;-7.10;70.39
61359;BME280;47228;46.762;23.598;2024-01-10T01:35:20;98698.27;;;-7.10;70.57
61359;BME280;47228;46.762;23.598;2024-01-10T01:37:50;98698.52;;;-7.07;70.73
61359;BME280;47228;46.762;23.598;2024-01-10T01:40:19;98696.16;;;-7.04;70.76
61359;BME280;47228;46.762;23.598;2024-01-10T01:42:47;98698.06;;;-7.05;70.35
61359;BME280;47228;46.762;23.598;2024-01-10T01:45:16;98692.98;;;-7.07;70.11
61359;BME280;47228;46.762;23.598;2024-01-10T01:47:44;98690.48;;;-7.09;70.09
61359;BME280;47228;46.762;23.598;2024-01-10T01:50:13;98689.73;;;-7.12;69.99
61359;BME280;47228;46.762;23.598;2024-01-10T01:52:43;98687.05;;;-7.14;70.25
61359;BME280;47228;46.762;23.598;2024-01-10T01:55:12;98686.63;;;-7.17;70.11
61359;BME280;47228;46.762;23.598;2024-01-10T01:57:40;98683.33;;;-7.21;69.96
61359;BME280;47228;46.762;23.598;2024-01-10T02:00:09;98682.41;;;-7.24;70.07
61359;BME280;47228;46.762;23.598;2024-01-10T02:02:38;98680.05;;;-7.24;70.17
61359;BME280;47228;46.762;23.598;2024-01-10T02:05:06;98678.47;;;-7.24;70.42
61359;BME280;47228;46.762;23.598;2024-01-10T02:07:35;98682.95;;;-7.20;70.48
61359;BME280;47228;46.762;23.598;2024-01-10T02:10:03;98683.15;;;-7.20;70.03
61359;BME280;47228;46.762;23.598;2024-01-10T02:12:31;98684.11;;;-7.23;69.86
61359;BME280;47228;46.762;23.598;2024-01-10T02:14:59;98680.92;;;-7.25;69.86
61359;BME280;47228;46.762;23.598;2024-01-10T02:17:27;98682.57;;;-7.28;69.93
61359;BME280;47228;46.762;23.598;2024-01-10T02:20:12;98684.23;;;-7.31;69.80
61359;BME280;47228;46.762;23.598;2024-01-10T02:22:41;98686.54;;;-7.33;69.75
61359;BME280;47228;46.762;23.598;2024-01-10T02:25:10;98687.09;;;-7.33;70.03
61359;BME280;47228;46.762;23.598;2024-01-10T02:27:40;98684.66;;;-7.33;70.17
61359;BME280;47228;46.762;23.598;2024-01-10T02:30:09;98681.20;;;-7.33;69.95
61359;BME280;47228;46.762;23.598;2024-01-10T02:32:38;98682.70;;;-7.31;70.22
61359;BME280;47228;46.762;23.598;2024-01-10T02:35:07;98686.70;;;-7.28;70.21
61359;BME280;47228;46.762;23.598;2024-01-10T02:37:35;98684.07;;;-7.27;70.16
61359;BME280;47228;46.762;23.598;2024-01-10T02:40:04;98681.32;;;-7.26;69.91
61359;BME280;47228;46.762;23.598;2024-01-10T02:42:32;98685.92;;;-7.25;70.06
61359;BME280;47228;46.762;23.598;2024-01-10T02:45:01;98682.95;;;-7.24;70.02
61359;BME280;47228;46.762;23.598;2024-01-10T02:47:29;98682.65;;;-7.25;69.80
61359;BME280;47228;46.762;23.598;2024-01-10T02:49:57;98680.41;;;-7.25;69.94
61359;BME280;47228;46.762;23.598;2024-01-10T02:52:25;98676.32;;;-7.26;69.85
61359;BME280;47228;46.762;23.598;2024-01-10T02:54:53;98676.33;;;-7.26;69.94
61359;BME280;47228;46.762;23.598;2024-01-10T02:57:21;98680.02;;;-7.24;70.19
61359;BME280;47228;46.762;23.598;2024-01-10T02:59:49;98679.73;;;-7.25;70.23
61359;BME280;47228;46.762;23.598;2024-01-10T03:02:18;98680.52;;;-7.28;69.95
61359;BME280;47228;46.762;23.598;2024-01-10T03:04:46;98680.30;;;-7.31;69.67
61359;BME280;47228;46.762;23.598;2024-01-10T03:07:14;98674.71;;;-7.34;69.81
61359;BME280;47228;46.762;23.598;2024-01-10T03:09:42;98673.23;;;-7.36;69.90
61359;BME280;47228;46.762;23.598;2024-01-10T03:12:11;98675.82;;;-7.36;70.09
61359;BME280;47228;46.762;23.598;2024-01-10T03:14:40;98676.00;;;-7.36;70.14
61359;BME280;47228;46.762;23.598;2024-01-10T03:17:08;98675.33;;;-7.37;69.97
61359;BME280;47228;46.762;23.598;2024-01-10T03:19:36;98672.01;;;-7.35;70.18
61359;BME280;47228;46.762;23.598;2024-01-10T03:22:12;98672.05;;;-7.36;69.77
61359;BME280;47228;46.762;23.598;2024-01-10T03:24:40;98671.97;;;-7.39;69.94
61359;BME280;47228;46.762;23.598;2024-01-10T03:27:08;98670.48;;;-7.36;70.48
61359;BME280;47228;46.762;23.598;2024-01-10T03:29:36;98672.95;;;-7.33;70.20
61359;BME280;47228;46.762;23.598;2024-01-10T03:32:04;98671.69;;;-7.31;70.48
61359;BME280;47228;46.762;23.598;2024-01-10T03:34:32;98671.27;;;-7.25;70.77
61359;BME280;47228;46.762;23.598;2024-01-10T03:37:00;98667.77;;;-7.23;70.41
61359;BME280;47228;46.762;23.598;2024-01-10T03:39:28;98671.17;;;-7.22;70.46
61359;BME280;47228;46.762;23.598;2024-01-10T03:41:57;98669.30;;;-7.23;70.47
61359;BME280;47228;46.762;23.598;2024-01-10T03:44:26;98670.13;;;-7.22;70.55
61359;BME280;47228;46.762;23.598;2024-01-10T03:46:55;98669.77;;;-7.22;70.51
61359;BME280;47228;46.762;23.598;2024-01-10T03:49:23;98670.70;;;-7.19;70.79
61359;BME280;47228;46.762;23.598;2024-01-10T03:51:51;98667.70;;;-7.17;70.43
61359;BME280;47228;46.762;23.598;2024-01-10T03:54:19;98668.14;;;-7.20;70.05
61359;BME280;47228;46.762;23.598;2024-01-10T03:56:47;98667.95;;;-7.24;69.77
61359;BME280;47228;46.762;23.598;2024-01-10T03:59:15;98662.80;;;-7.28;69.92
61359;BME280;47228;46.762;23.598;2024-01-10T04:01:44;98662.89;;;-7.31;69.92
61359;BME280;47228;46.762;23.598;2024-01-10T04:04:17;98660.75;;;-7.34;69.73
61359;BME280;47228;46.762;23.598;2024-01-10T04:06:45;98661.77;;;-7.37;69.70
61359;BME280;47228;46.762;23.598;2024-01-10T04:09:14;98663.98;;;-7.42;69.79
61359;BME280;47228;46.762;23.598;2024-01-10T04:11:42;98665.86;;;-7.46;69.56
61359;BME280;47228;46.762;23.598;2024-01-10T04:14:12;98667.44;;;-7.52;69.44
61359;BME280;47228;46.762;23.598;2024-01-10T04:16:41;98662.13;;;-7.57;69.45
61359;BME280;47228;46.762;23.598;2024-01-10T04:19:09;98661.27;;;-7.62;69.44
61359;BME280;47228;46.762;23.598;2024-01-10T04:21:37;98660.40;;;-7.67;69.61
61359;BME280;47228;46.762;23.598;2024-01-10T04:24:05;98663.13;;;-7.70;69.48
61359;BME280;47228;46.762;23.598;2024-01-10T04:26:35;98659.48;;;-7.75;69.47
61359;BME280;47228;46.762;23.598;2024-01-10T04:29:03;98663.69;;;-7.76;69.49
61359;BME280;47228;46.762;23.598;2024-01-10T04:31:32;98662.27;;;-7.81;69.43
61359;BME280;47228;46.762;23.598;2024-01-10T04:34:00;98663.60;;;-7.84;69.31
61359;BME280;47228;46.762;23.598;2024-01-10T04:36:28;98663.88;;;-7.87;69.41
61359;BME280;47228;46.762;23.598;2024-01-10T04:38:56;98663.17;;;-7.91;69.35
61359;BME280;47228;46.762;23.598;2024-01-10T04:41:25;98664.83;;;-7.95;69.46
61359;BME280;47228;46.762;23.598;2024-01-10T04:43:53;98672.80;;;-7.96;69.54
61359;BME280;47228;46.762;23.598;2024-01-10T04:46:21;98668.45;;;-8.00;69.53
61359;BME280;47228;46.762;23.598;2024-01-10T04:48:50;98670.86;;;-8.00;69.76
61359;BME280;47228;46.762;23.598;2024-01-10T04:51:19;98671.86;;;-7.99;69.90
61359;BME280;47228;46.762;23.598;2024-01-10T04:53:47;98670.59;;;-7.97;70.16
61359;BME280;47228;46.762;23.598;2024-01-10T04:56:15;98670.48;;;-7.94;70.16
61359;BME280;47228;46.762;23.598;2024-01-10T04:58:44;98667.64;;;-7.91;70.29
61359;BME280;47228;46.762;23.598;2024-01-10T05:01:14;98674.20;;;-7.87;70.36
61359;BME280;47228;46.762;23.598;2024-01-10T05:03:42;98675.14;;;-7.84;70.16
61359;BME280;47228;46.762;23.598;2024-01-10T05:06:11;98678.49;;;-7.82;70.04
61359;BME280;47228;46.762;23.598;2024-01-10T05:08:39;98683.86;;;-7.78;70.06
61359;BME280;47228;46.762;23.598;2024-01-10T05:11:07;98684.27;;;-7.75;70.09
61359;BME280;47228;46.762;23.598;2024-01-10T05:13:36;98685.26;;;-7.74;69.92
61359;BME280;47228;46.762;23.598;2024-01-10T05:16:05;98687.96;;;-7.73;69.90
61359;BME280;47228;46.762;23.598;2024-01-10T05:18:33;98684.95;;;-7.70;70.22
61359;BME280;47228;46.762;23.598;2024-01-10T05:21:03;98687.15;;;-7.64;70.25
61359;BME280;47228;46.762;23.598;2024-01-10T05:23:31;98685.71;;;-7.62;70.07
61359;BME280;47228;46.762;23.598;2024-01-10T05:26:00;98683.27;;;-7.61;69.82
61359;BME280;47228;46.762;23.598;2024-01-10T05:28:28;98686.13;;;-7.59;69.83
61359;BME280;47228;46.762;23.598;2024-01-10T05:30:57;98684.15;;;-7.57;69.83
61359;BME280;47228;46.762;23.598;2024-01-10T05:33:26;98682.67;;;-7.54;70.03
61359;BME280;47228;46.762;23.598;2024-01-10T05:35:54;98680.83;;;-7.51;69.89
61359;BME280;47228;46.762;23.598;2024-01-10T05:38:22;98684.79;;;-7.46;70.02
61359;BME280;47228;46.762;23.598;2024-01-10T05:40:51;98682.69;;;-7.41;70.01
61359;BME280;47228;46.762;23.598;2024-01-10T05:43:20;98683.23;;;-7.37;69.66
61359;BME280;47228;46.762;23.598;2024-01-10T05:45:49;98687.80;;;-7.34;69.57
61359;BME280;47228;46.762;23.598;2024-01-10T05:48:17;98685.94;;;-7.30;69.47
61359;BME280;47228;46.762;23.598;2024-01-10T05:50:46;98686.83;;;-7.31;69.25
61359;BME280;47228;46.762;23.598;2024-01-10T05:53:14;98689.13;;;-7.38;68.90
61359;BME280;47228;46.762;23.598;2024-01-10T05:55:45;98691.89;;;-7.47;68.97
61359;BME280;47228;46.762;23.598;2024-01-10T05:58:13;98689.18;;;-7.54;69.21
61359;BME280;47228;46.762;23.598;2024-01-10T06:00:41;98684.03;;;-7.58;69.26
61359;BME280;47228;46.762;23.598;2024-01-10T06:03:09;98684.66;;;-7.62;69.32
61359;BME280;47228;46.762;23.598;2024-01-10T06:05:37;98685.48;;;-7.60;69.77
61359;BME280;47228;46.762;23.598;2024-01-10T06:08:06;98686.53;;;-7.56;70.03
61359;BME280;47228;46.762;23.598;2024-01-10T06:10:34;98690.00;;;-7.52;70.06
61359;BME280;47228;46.762;23.598;2024-01-10T06:13:05;98689.98;;;-7.51;69.73
61359;BME280;47228;46.762;23.598;2024-01-10T06:15:33;98693.67;;;-7.54;69.33
61359;BME280;47228;46.762;23.598;2024-01-10T06:18:02;98698.44;;;-7.57;69.28
61359;BME280;47228;46.762;23.598;2024-01-10T06:20:31;98698.59;;;-7.61;69.27
61359;BME280;47228;46.762;23.598;2024-01-10T06:23:00;98696.29;;;-7.65;69.35
61359;BME280;47228;46.762;23.598;2024-01-10T06:25:28;98698.09;;;-7.67;69.32
61359;BME280;47228;46.762;23.598;2024-01-10T06:27:56;98700.98;;;-7.71;69.32
61359;BME280;47228;46.762;23.598;2024-01-10T06:30:25;98701.41;;;-7.73;69.69
61359;BME280;47228;46.762;23.598;2024-01-10T06:32:53;98704.93;;;-7.71;70.22
61359;BME280;47228;46.762;23.598;2024-01-10T06:35:21;98707.04;;;-7.62;70.72
61359;BME280;47228;46.762;23.598;2024-01-10T06:37:49;98704.54;;;-7.54;70.77
61359;BME280;47228;46.762;23.598;2024-01-10T06:40:17;98706.88;;;-7.48;70.87
61359;BME280;47228;46.762;23.598;2024-01-10T06:42:45;98708.77;;;-7.38;71.00
61359;BME280;47228;46.762;23.598;2024-01-10T06:45:14;98707.70;;;-7.28;71.18
61359;BME280;47228;46.762;23.598;2024-01-10T06:47:42;98707.52;;;-7.19;71.07
61359;BME280;47228;46.762;23.598;2024-01-10T06:50:10;98710.47;;;-7.09;71.23
61359;BME280;47228;46.762;23.598;2024-01-10T06:52:39;98715.20;;;-6.98;71.07
61359;BME280;47228;46.762;23.598;2024-01-10T06:55:08;98713.59;;;-6.87;70.96
61359;BME280;47228;46.762;23.598;2024-01-10T06:57:36;98719.64;;;-6.79;70.69
61359;BME280;47228;46.762;23.598;2024-01-10T07:00:05;98723.64;;;-6.71;70.60
61359;BME280;47228;46.762;23.598;2024-01-10T07:02:35;98724.17;;;-6.62;70.32
61359;BME280;47228;46.762;23.598;2024-01-10T07:05:10;98730.77;;;-6.55;70.20
61359;BME280;47228;46.762;23.598;2024-01-10T07:07:38;98733.55;;;-6.46;69.92
61359;BME280;47228;46.762;23.598;2024-01-10T07:10:07;98730.17;;;-6.39;69.84
61359;BME280;47228;46.762;23.598;2024-01-10T07:12:35;98728.75;;;-6.34;69.35
61359;BME280;47228;46.762;23.598;2024-01-10T07:15:03;98728.77;;;-6.30;69.36
61359;BME280;47228;46.762;23.598;2024-01-10T07:17:32;98731.27;;;-6.24;69.26
61359;BME280;47228;46.762;23.598;2024-01-10T07:20:01;98729.14;;;-6.18;69.01
61359;BME280;47228;46.762;23.598;2024-01-10T07:22:32;98725.64;;;-6.13;68.84
61359;BME280;47228;46.762;23.598;2024-01-10T07:25:00;98727.31;;;-6.07;68.69
61359;BME280;47228;46.762;23.598;2024-01-10T07:27:29;98730.31;;;-6.05;68.13
61359;BME280;47228;46.762;23.598;2024-01-10T07:29:57;98728.16;;;-6.03;67.87
61359;BME280;47228;46.762;23.598;2024-01-10T07:32:25;98733.17;;;-5.99;67.96
61359;BME280;47228;46.762;23.598;2024-01-10T07:34:54;98736.44;;;-5.95;67.81
61359;BME280;47228;46.762;23.598;2024-01-10T07:37:22;98737.55;;;-5.88;68.10
61359;BME280;47228;46.762;23.598;2024-01-10T07:39:50;98735.50;;;-5.81;67.84
61359;BME280;47228;46.762;23.598;2024-01-10T07:42:18;98736.39;;;-5.73;67.52
61359;BME280;47228;46.762;23.598;2024-01-10T07:44:47;98736.77;;;-5.70;67.12
61359;BME280;47228;46.762;23.598;2024-01-10T07:47:17;98731.96;;;-5.66;66.98
61359;BME280;47228;46.762;23.598;2024-01-10T07:49:45;98727.29;;;-5.62;67.23
61359;BME280;47228;46.762;23.598;2024-01-10T07:52:15;98725.37;;;-5.53;67.35
61359;BME280;47228;46.762;23.598;2024-01-10T07:54:44;98725.55;;;-5.50;66.85
61359;BME280;47228;46.762;23.598;2024-01-10T07:57:12;98725.06;;;-5.47;66.81
61359;BME280;47228;46.762;23.598;2024-01-10T07:59:40;98726.27;;;-5.38;66.99
61359;BME280;47228;46.762;23.598;2024-01-10T08:02:09;98732.69;;;-5.27;66.91
61359;BME280;47228;46.762;23.598;2024-01-10T08:04:38;98727.84;;;-5.16;66.94
61359;BME280;47228;46.762;23.598;2024-01-10T08:07:06;98725.67;;;-5.02;67.07
61359;BME280;47228;46.762;23.598;2024-01-10T08:09:35;98726.27;;;-4.88;66.83
61359;BME280;47228;46.762;23.598;2024-01-10T08:12:04;98723.23;;;-4.78;66.49
61359;BME280;47228;46.762;23.598;2024-01-10T08:14:33;98720.63;;;-4.75;65.76
61359;BME280;47228;46.762;23.598;2024-01-10T08:17:01;98724.95;;;-4.74;65.36
61359;BME280;47228;46.762;23.598;2024-01-10T08:19:30;98723.34;;;-4.74;65.21
61359;BME280;47228;46.762;23.598;2024-01-10T08:21:58;98722.59;;;-4.72;65.04
61359;BME280;47228;46.762;23.598;2024-01-10T08:24:27;98722.55;;;-4.68;65.08
61359;BME280;47228;46.762;23.598;2024-01-10T08:26:55;98725.02;;;-4.62;65.30
61359;BME280;47228;46.762;23.598;2024-01-10T08:29:24;98723.48;;;-4.54;65.32
61359;BME280;47228;46.762;23.598;2024-01-10T08:31:58;98723.93;;;-4.46;65.20
61359;BME280;47228;46.762;23.598;2024-01-10T08:34:27;98721.70;;;-4.39;64.87
61359;BME280;47228;46.762;23.598;2024-01-10T08:36:55;98720.44;;;-4.34;64.72
61359;BME280;47228;46.762;23.598;2024-01-10T08:39:23;98724.02;;;-4.30;64.45
61359;BME280;47228;46.762;23.598;2024-01-10T08:41:54;98723.75;;;-4.28;63.88
61359;BME280;47228;46.762;23.598;2024-01-10T08:44:23;98724.83;;;-4.29;63.25
61359;BME280;47228;46.762;23.598;2024-01-10T08:46:52;98722.73;;;-4.28;63.12
61359;BME280;47228;46.762;23.598;2024-01-10T08:49:20;98717.10;;;-4.26;63.24
61359;BME280;47228;46.762;23.598;2024-01-10T08:51:49;98711.45;;;-4.20;63.28
61359;BME280;47228;46.762;23.598;2024-01-10T08:54:17;98712.99;;;-4.13;63.10
61359;BME280;47228;46.762;23.598;2024-01-10T08:56:47;98714.67;;;-4.08;62.85
61359;BME280;47228;46.762;23.598;2024-01-10T08:59:15;98713.85;;;-4.02;62.80
61359;BME280;47228;46.762;23.598;2024-01-10T09:01:44;98715.39;;;-3.94;62.72
61359;BME280;47228;46.762;23.598;2024-01-10T09:04:12;98716.02;;;-3.86;62.48
61359;BME280;47228;46.762;23.598;2024-01-10T09:06:40;98710.85;;;-3.80;62.19
61359;BME280;47228;46.762;23.598;2024-01-10T09:09:09;98708.44;;;-3.77;61.51
61359;BME280;47228;46.762;23.598;2024-01-10T09:11:37;98706.34;;;-3.76;61.27
61359;BME280;47228;46.762;23.598;2024-01-10T09:14:09;98705.45;;;-3.72;61.47
61359;BME280;47228;46.762;23.598;2024-01-10T09:16:38;98704.00;;;-3.68;61.20
61359;BME280;47228;46.762;23.598;2024-01-10T09:19:07;98706.64;;;-3.65;60.56
61359;BME280;47228;46.762;23.598;2024-01-10T09:21:38;98705.11;;;-3.66;60.22
61359;BME280;47228;46.762;23.598;2024-01-10T09:24:07;98700.27;;;-3.63;60.51
61359;BME280;47228;46.762;23.598;2024-01-10T09:26:53;98700.48;;;-3.60;60.62
61359;BME280;47228;46.762;23.598;2024-01-10T09:29:25;98701.27;;;-3.55;60.71
61359;BME280;47228;46.762;23.598;2024-01-10T09:31:56;98702.42;;;-3.50;60.83
61359;BME280;47228;46.762;23.598;2024-01-10T09:34:25;98702.28;;;-3.44;61.02
61359;BME280;47228;46.762;23.598;2024-01-10T09:36:53;98704.32;;;-3.37;61.08
61359;BME280;47228;46.762;23.598;2024-01-10T09:39:22;98705.39;;;-3.31;61.02
61359;BME280;47228;46.762;23.598;2024-01-10T09:41:51;98704.03;;;-3.25;61.13
61359;BME280;47228;46.762;23.598;2024-01-10T09:44:21;98703.00;;;-3.18;61.62
61359;BME280;47228;46.762;23.598;2024-01-10T09:46:54;98705.13;;;-3.13;61.63
61359;BME280;47228;46.762;23.598;2024-01-10T09:49:23;98698.70;;;-3.09;61.79
61359;BME280;47228;46.762;23.598;2024-01-10T09:51:57;98697.98;;;-3.05;62.12
61359;BME280;47228;46.762;23.598;2024-01-10T09:54:30;98699.63;;;-3.04;62.10
61359;BME280;47228;46.762;23.598;2024-01-10T09:56:59;98703.97;;;-3.04;62.20
61359;BME280;47228;46.762;23.598;2024-01-10T09:59:28;98699.26;;;-3.03;62.56
61359;BME280;47228;46.762;23.598;2024-01-10T10:01:57;98697.07;;;-3.05;62.63
61359;BME280;47228;46.762;23.598;2024-01-10T10:04:29;98694.09;;;-3.07;62.65
61359;BME280;47228;46.762;23.598;2024-01-10T10:06:58;98692.92;;;-3.11;62.59
61359;BME280;47228;46.762;23.598;2024-01-10T10:09:30;98689.98;;;-3.15;62.79
61359;BME280;47228;46.762;23.598;2024-01-10T10:11:59;98688.27;;;-3.18;62.72
61359;BME280;47228;46.762;23.598;2024-01-10T10:14:30;98686.42;;;-3.19;62.60
61359;BME280;47228;46.762;23.598;2024-01-10T10:17:18;98682.98;;;-3.20;62.55
61359;BME280;47228;46.762;23.598;2024-01-10T10:19:46;98680.73;;;-3.19;62.76
61359;BME280;47228;46.762;23.598;2024-01-10T10:22:16;98677.13;;;-3.17;62.84
61359;BME280;47228;46.762;23.598;2024-01-10T10:24:48;98673.90;;;-3.15;62.95
61359;BME280;47228;46.762;23.598;2024-01-10T10:27:16;98670.52;;;-3.14;62.96
61359;BME280;47228;46.762;23.598;2024-01-10T10:29:45;98662.62;;;-3.12;63.15
61359;BME280;47228;46.762;23.598;2024-01-10T10:32:15;98659.05;;;-3.10;63.39
61359;BME280;47228;46.762;23.598;2024-01-10T10:34:43;98657.63;;;-3.06;63.77
61359;BME280;47228;46.762;23.598;2024-01-10T10:37:12;98658.50;;;-3.03;63.65
61359;BME280;47228;46.762;23.598;2024-01-10T10:39:40;98656.08;;;-3.00;63.64
61359;BME280;47228;46.762;23.598;2024-01-10T10:42:09;98659.11;;;-2.95;63.59
61359;BME280;47228;46.762;23.598;2024-01-10T10:44:40;98658.00;;;-2.90;63.77
61359;BME280;47228;46.762;23.598;2024-01-10T10:47:11;98654.89;;;-2.88;63.69
61359;BME280;47228;46.762;23.598;2024-01-10T10:49:50;98652.23;;;-2.83;63.39
61359;BME280;47228;46.762;23.598;2024-01-10T10:52:21;98652.64;;;-2.78;63.59
61359;BME280;47228;46.762;23.598;2024-01-10T10:54:51;98650.73;;;-2.75;63.66
61359;BME280;47228;46.762;23.598;2024-01-10T10:57:25;98647.09;;;-2.72;63.49
61359;BME280;47228;46.762;23.598;2024-01-10T10:59:55;98647.69;;;-2.67;63.50
61359;BME280;47228;46.762;23.598;2024-01-10T11:02:23;98644.02;;;-2.64;63.54
61359;BME280;47228;46.762;23.598;2024-01-10T11:04:59;98643.90;;;-2.58;63.52
61359;BME280;47228;46.762;23.598;2024-01-10T11:07:29;98642.41;;;-2.53;63.43
61359;BME280;47228;46.762;23.598;2024-01-10T11:10:01;98632.93;;;-2.48;63.42
61359;BME280;47228;46.762;23.598;2024-01-10T11:15:59;98624.48;;;-2.37;63.36
61359;BME280;47228;46.762;23.598;2024-01-10T11:19:04;98619.13;;;-2.31;63.25
61359;BME280;47228;46.762;23.598;2024-01-10T11:24:07;98614.88;;;-2.21;62.98
61359;BME280;47228;46.762;23.598;2024-01-10T11:26:38;98611.39;;;-2.18;63.01
61359;BME280;47228;46.762;23.598;2024-01-10T11:29:06;98608.69;;;-2.13;62.86
61359;BME280;47228;46.762;23.598;2024-01-10T11:31:34;98607.95;;;-2.09;62.90
61359;BME280;47228;46.762;23.598;2024-01-10T11:34:02;98607.05;;;-2.06;62.83
61359;BME280;47228;46.762;23.598;2024-01-10T11:36:36;98606.41;;;-2.01;62.78
61359;BME280;47228;46.762;23.598;2024-01-10T11:39:04;98605.27;;;-1.97;62.87
61359;BME280;47228;46.762;23.598;2024-01-10T11:41:37;98602.73;;;-1.92;62.74
61359;BME280;47228;46.762;23.598;2024-01-10T11:46:57;98598.60;;;-1.81;62.78
61359;BME280;47228;46.762;23.598;2024-01-10T11:49:26;98595.48;;;-1.75;62.51
61359;BME280;47228;46.762;23.598;2024-01-10T11:51:57;98594.65;;;-1.70;62.29
61359;BME280;47228;46.762;23.598;2024-01-10T11:54:41;98592.77;;;-1.64;62.35
61359;BME280;47228;46.762;23.598;2024-01-10T11:57:18;98591.93;;;-1.59;62.29
61359;BME280;47228;46.762;23.598;2024-01-10T11:59:50;98590.20;;;-1.54;62.10
61359;BME280;47228;46.762;23.598;2024-01-10T12:02:20;98590.02;;;-1.48;61.88
61359;BME280;47228;46.762;23.598;2024-01-10T12:04:48;98589.52;;;-1.43;61.72
61359;BME280;47228;46.762;23.598;2024-01-10T12:07:17;98590.05;;;-1.37;61.64
61359;BME280;47228;46.762;23.598;2024-01-10T12:09:47;98587.16;;;-1.33;61.62
61359;BME280;47228;46.762;23.598;2024-01-10T12:12:16;98587.85;;;-1.30;61.49
61359;BME280;47228;46.762;23.598;2024-01-10T12:14:44;98588.12;;;-1.26;61.21
61359;BME280;47228;46.762;23.598;2024-01-10T12:17:15;98585.62;;;-1.22;61.35
61359;BME280;47228;46.762;23.598;2024-01-10T12:19:47;98578.98;;;-1.19;61.50
61359;BME280;47228;46.762;23.598;2024-01-10T12:22:16;98575.61;;;-1.15;61.33
61359;BME280;47228;46.762;23.598;2024-01-10T12:24:49;98576.05;;;-1.11;61.14
61359;BME280;47228;46.762;23.598;2024-01-10T12:27:22;98575.86;;;-1.08;60.78
61359;BME280;47228;46.762;23.598;2024-01-10T12:29:52;98574.52;;;-1.06;60.80
61359;BME280;47228;46.762;23.598;2024-01-10T12:32:22;98572.34;;;-1.04;60.82
61359;BME280;47228;46.762;23.598;2024-01-10T12:35:05;98571.59;;;-1.03;60.63
61359;BME280;47228;46.762;23.598;2024-01-10T12:37:34;98571.94;;;-1.01;60.85
61359;BME280;47228;46.762;23.598;2024-01-10T12:40:07;98571.96;;;-0.99;60.99
61359;BME280;47228;46.762;23.598;2024-01-10T12:42:38;98572.81;;;-0.95;60.78
61359;BME280;47228;46.762;23.598;2024-01-10T12:45:23;98570.09;;;-0.94;60.57
61359;BME280;47228;46.762;23.598;2024-01-10T12:47:53;98564.16;;;-0.94;60.46
61359;BME280;47228;46.762;23.598;2024-01-10T12:50:22;98560.44;;;-0.93;60.31
61359;BME280;47228;46.762;23.598;2024-01-10T12:52:57;98558.14;;;-0.92;60.28
61359;BME280;47228;46.762;23.598;2024-01-10T12:55:26;98557.38;;;-0.91;60.15
61359;BME280;47228;46.762;23.598;2024-01-10T12:57:56;98556.38;;;-0.88;60.21
61359;BME280;47228;46.762;23.598;2024-01-10T13:00:34;98551.09;;;-0.85;60.49
61359;BME280;47228;46.762;23.598;2024-01-10T13:03:03;98548.98;;;-0.82;60.47
61359;BME280;47228;46.762;23.598;2024-01-10T13:05:35;98549.53;;;-0.80;60.15
61359;BME280;47228;46.762;23.598;2024-01-10T13:08:22;98551.15;;;-0.78;60.29
61359;BME280;47228;46.762;23.598;2024-01-10T13:10:51;98550.92;;;-0.77;60.10